sensor_id;sensor_type;location;lat;lon;timestamp;pressure;altitude;pressure_sealevel;temperature;humidity
40650;BME280;26342;42.826;23.992;2024-03-23T00:55:58;95430.75;;;1.62;100.00
40650;BME280;26342;42.826;23.992;2024-03-23T00:58:24;95430.13;;;1.53;100.00
40650;BME280;26342;42.826;23.992;2024-03-23T01:00:49;95424.06;;;1.53;100.00
40650;BME280;26342;42.826;23.992;2024-03-23T01:03:15;95425.66;;;1.54;100.00
40650;BME280;26342;42.826;23.992;2024-03-23T01:05:40;95420.41;;;1.54;100.00
40650;BME280;26342;42.826;23.992;2024-03-23T01:08:06;95417.56;;;1.49;100.00
40650;BME280;26342;42.826;23.992;2024-03-23T01:10:31;95417.56;;;1.49;100.00
40650;BME280;26342;42.826;23.992;2024-03-23T01:12:57;95415.94;;;1.48;100.00
40650;BME280;26342;42.826;23.992;2024-03-23T01:15:22;95419.59;;;1.47;100.00
40650;BME280;26342;42.826;23.992;2024-03-23T01:17:47;95409.44;;;1.37;100.00
40650;BME280;26342;42.826;23.992;2024-03-23T01:20:13;95416.94;;;1.40;100.00
40650;BME280;26342;42.826;23.992;2024-03-23T01:22:38;95410.66;;;1.34;100.00
40650;BME280;26342;42.826;23.992;2024-03-23T01:25:04;95411.84;;;1.32;100.00
40650;BME280;26342;42.826;23.992;2024-03-23T01:27:29;95416.53;;;1.36;100.00
40650;BME280;26342;42.826;23.992;2024-03-23T01:29:55;95408.84;;;1.35;100.00
40650;BME280;26342;42.826;23.992;2024-03-23T01:32:20;95416.31;;;1.31;100.00
40650;BME280;26342;42.826;23.992;2024-03-23T01:34:45;95408.84;;;1.35;100.00
40650;BME280;26342;42.826;23.992;2024-03-23T01:37:11;95414.28;;;1.27;100.00
40650;BME280;26342;42.826;23.992;2024-03-23T01:39:36;95406.78;;;1.30;100.00
40650;BME280;26342;42.826;23.992;2024-03-23T01:42:02;95417.09;;;1.25;100.00
40650;BME280;26342;42.826;23.992;2024-03-23T01:44:27;95400.06;;;1.08;100.00
40650;BME280;26342;42.826;23.992;2024-03-23T01:46:53;95413.00;;;1.09;100.00
40650;BME280;26342;42.826;23.992;2024-03-23T01:49:18;95411.56;;;1.07;100.00
40650;BME280;26342;42.826;23.992;2024-03-23T01:51:44;95408.34;;;1.05;100.00
40650;BME280;26342;42.826;23.992;2024-03-23T01:54:10;95411.16;;;1.10;100.00
40650;BME280;26342;42.826;23.992;2024-03-23T01:56:35;95412.38;;;1.07;100.00
40650;BME280;26342;42.826;23.992;2024-03-23T01:59:05;95415.81;;;1.08;100.00
40650;BME280;26342;42.826;23.992;2024-03-23T02:01:31;95421.47;;;1.05;100.00
40650;BME280;26342;42.826;23.992;2024-03-23T02:03:57;95410.97;;;1.05;100.00
40650;BME280;26342;42.826;23.992;2024-03-23T02:06:24;95419.63;;;0.99;100.00
40650;BME280;26342;42.826;23.992;2024-03-23T02:08:49;95403.47;;;0.95;100.00
40650;BME280;26342;42.826;23.992;2024-03-23T02:11:15;95400.41;;;0.92;100.00
40650;BME280;26342;42.826;23.992;2024-03-23T02:13:40;95401.59;;;0.89;100.00
40650;BME280;26342;42.826;23.992;2024-03-23T02:16:06;95400.00;;;0.88;100.00
40650;BME280;26342;42.826;23.992;2024-03-23T02:18:32;95403.19;;;0.83;100.00
40650;BME280;26342;42.826;23.992;2024-03-23T02:20:58;95408.19;;;0.78;100.00
40650;BME280;26342;42.826;23.992;2024-03-23T02:23:23;95403.75;;;0.72;100.00
40650;BME280;26342;42.826;23.992;2024-03-23T02:25:50;95398.50;;;0.79;100.00
40650;BME280;26342;42.826;23.992;2024-03-23T02:28:15;95400.34;;;0.85;100.00
40650;BME280;26342;42.826;23.992;2024-03-23T02:30:42;95406.41;;;0.86;100.00
40650;BME280;26342;42.826;23.992;2024-03-23T02:33:07;95407.63;;;0.83;100.00
40650;BME280;26342;42.826;23.992;2024-03-23T02:35:33;95397.09;;;0.76;100.00
40650;BME280;26342;42.826;23.992;2024-03-23T02:37:58;95398.13;;;0.82;100.00
40650;BME280;26342;42.826;23.992;2024-03-23T02:40:24;95403.19;;;0.83;100.00
40650;BME280;26342;42.826;23.992;2024-03-23T02:42:50;95393.28;;;0.86;100.00
40650;BME280;26342;42.826;23.992;2024-03-23T02:45:15;95391.25;;;0.81;100.00
40650;BME280;26342;42.826;23.992;2024-03-23T02:47:41;95393.88;;;0.81;100.00
40650;BME280;26342;42.826;23.992;2024-03-23T02:50:06;95397.31;;;0.81;100.00
40650;BME280;26342;42.826;23.992;2024-03-23T02:52:32;95396.72;;;0.79;100.00
40650;BME280;26342;42.826;23.992;2024-03-23T02:54:58;95398.72;;;0.77;100.00
40650;BME280;26342;42.826;23.992;2024-03-23T02:57:23;95395.66;;;0.74;100.00
40650;BME280;26342;42.826;23.992;2024-03-23T02:59:49;95393.41;;;0.71;100.00
40650;BME280;26342;42.826;23.992;2024-03-23T03:02:15;95396.69;;;0.73;100.00
40650;BME280;26342;42.826;23.992;2024-03-23T03:04:40;95398.88;;;0.69;100.00
40650;BME280;26342;42.826;23.992;2024-03-23T03:07:06;95389.63;;;0.73;100.00
40650;BME280;26342;42.826;23.992;2024-03-23T03:09:31;95399.31;;;0.73;100.00
40650;BME280;26342;42.826;23.992;2024-03-23T03:11:58;95396.69;;;0.73;100.00
40650;BME280;26342;42.826;23.992;2024-03-23T03:14:23;95392.44;;;0.72;100.00
40650;BME280;26342;42.826;23.992;2024-03-23T03:16:48;95396.47;;;0.74;100.00
40650;BME280;26342;42.826;23.992;2024-03-23T03:19:14;95397.88;;;0.70;100.00
40650;BME280;26342;42.826;23.992;2024-03-23T03:21:41;95398.88;;;0.69;100.00
40650;BME280;26342;42.826;23.992;2024-03-23T03:24:07;95397.66;;;0.65;100.00
40650;BME280;26342;42.826;23.992;2024-03-23T03:26:32;95398.22;;;0.61;100.00
40650;BME280;26342;42.826;23.992;2024-03-23T03:28:58;95398.41;;;0.59;100.00
40650;BME280;26342;42.826;23.992;2024-03-23T03:31:23;95397.63;;;0.59;100.00
40650;BME280;26342;42.826;23.992;2024-03-23T03:33:50;95402.25;;;0.57;100.00
40650;BME280;26342;42.826;23.992;2024-03-23T03:36:16;95396.19;;;0.56;100.00
40650;BME280;26342;42.826;23.992;2024-03-23T03:38:41;95398.19;;;0.54;100.00
40650;BME280;26342;42.826;23.992;2024-03-23T03:41:07;95397.16;;;0.48;100.00
40650;BME280;26342;42.826;23.992;2024-03-23T03:43:32;95400.63;;;0.55;100.00
40650;BME280;26342;42.826;23.992;2024-03-23T03:45:59;95405.03;;;0.48;100.00
40650;BME280;26342;42.826;23.992;2024-03-23T03:48:25;95401.41;;;0.49;100.00
40650;BME280;26342;42.826;23.992;2024-03-23T03:50:51;95390.09;;;0.49;100.00
40650;BME280;26342;42.826;23.992;2024-03-23T03:53:17;95396.75;;;0.51;100.00
40650;BME280;26342;42.826;23.992;2024-03-23T03:55:42;95400.16;;;0.45;100.00
40650;BME280;26342;42.826;23.992;2024-03-23T03:58:07;95402.56;;;0.40;100.00
40650;BME280;26342;42.826;23.992;2024-03-23T04:00:33;95395.72;;;0.46;100.00
40650;BME280;26342;42.826;23.992;2024-03-23T04:02:58;95398.34;;;0.46;100.00
40650;BME280;26342;42.826;23.992;2024-03-23T04:05:24;95397.97;;;0.49;100.00
40650;BME280;26342;42.826;23.992;2024-03-23T04:07:50;95392.09;;;0.47;100.00
40650;BME280;26342;42.826;23.992;2024-03-23T04:10:15;95399.59;;;0.50;100.00
40650;BME280;26342;42.826;23.992;2024-03-23T04:12:41;95383.75;;;0.37;100.00
40650;BME280;26342;42.826;23.992;2024-03-23T04:15:07;95397.94;;;0.42;100.00
40650;BME280;26342;42.826;23.992;2024-03-23T04:17:33;95399.13;;;0.40;100.00
40650;BME280;26342;42.826;23.992;2024-03-23T04:20:00;95397.69;;;0.37;100.00
40650;BME280;26342;42.826;23.992;2024-03-23T04:22:26;95400.72;;;0.34;100.00
40650;BME280;26342;42.826;23.992;2024-03-23T04:24:56;95394.59;;;0.27;100.00
40650;BME280;26342;42.826;23.992;2024-03-23T04:27:25;95394.16;;;0.23;100.00
40650;BME280;26342;42.826;23.992;2024-03-23T04:29:51;95396.38;;;0.20;100.00
40650;BME280;26342;42.826;23.992;2024-03-23T04:32:17;95395.97;;;0.23;100.00
40650;BME280;26342;42.826;23.992;2024-03-23T04:34:43;95396.94;;;0.15;100.00
40650;BME280;26342;42.826;23.992;2024-03-23T04:37:09;95396.38;;;0.20;100.00
40650;BME280;26342;42.826;23.992;2024-03-23T04:39:36;95394.56;;;0.20;100.00
40650;BME280;26342;42.826;23.992;2024-03-23T04:42:01;95399.81;;;0.20;100.00
40650;BME280;26342;42.826;23.992;2024-03-23T04:44:28;95400.03;;;0.25;100.00
40650;BME280;26342;42.826;23.992;2024-03-23T04:46:53;95397.19;;;0.20;100.00
40650;BME280;26342;42.826;23.992;2024-03-23T04:49:19;95392.38;;;0.24;100.00
40650;BME280;26342;42.826;23.992;2024-03-23T04:51:44;95397.63;;;0.24;100.00
40650;BME280;26342;42.826;23.992;2024-03-23T04:54:13;95402.88;;;0.24;100.00
40650;BME280;26342;42.826;23.992;2024-03-23T04:56:39;95402.28;;;0.28;100.00
40650;BME280;26342;42.826;23.992;2024-03-23T04:59:04;95399.25;;;0.25;100.00
40650;BME280;26342;42.826;23.992;2024-03-23T05:01:31;95405.09;;;0.27;100.00
40650;BME280;26342;42.826;23.992;2024-03-23T05:03:57;95393.41;;;0.30;100.00
40650;BME280;26342;42.826;23.992;2024-03-23T05:06:23;95403.91;;;0.30;100.00
40650;BME280;26342;42.826;23.992;2024-03-23T05:08:49;95407.97;;;0.32;100.00
40650;BME280;26342;42.826;23.992;2024-03-23T05:11:15;95401.31;;;0.36;100.00
40650;BME280;26342;42.826;23.992;2024-03-23T05:13:41;95398.09;;;0.34;100.00
40650;BME280;26342;42.826;23.992;2024-03-23T05:16:06;95397.69;;;0.37;100.00
40650;BME280;26342;42.826;23.992;2024-03-23T05:18:32;95384.34;;;0.32;100.00
40650;BME280;26342;42.826;23.992;2024-03-23T05:20:58;95396.91;;;0.43;100.00
40650;BME280;26342;42.826;23.992;2024-03-23T05:23:24;95399.19;;;0.53;100.00
40650;BME280;26342;42.826;23.992;2024-03-23T05:25:50;95389.50;;;0.53;100.00
40650;BME280;26342;42.826;23.992;2024-03-23T05:28:17;95391.34;;;0.60;100.00
40650;BME280;26342;42.826;23.992;2024-03-23T05:30:43;95395.25;;;0.70;100.00
40650;BME280;26342;42.826;23.992;2024-03-23T05:33:08;95384.72;;;0.70;100.00
40650;BME280;26342;42.826;23.992;2024-03-23T05:35:34;95389.00;;;0.78;100.00
40650;BME280;26342;42.826;23.992;2024-03-23T05:37:59;95384.19;;;0.81;100.00
40650;BME280;26342;42.826;23.992;2024-03-23T05:40:28;95389.31;;;0.96;100.00
40650;BME280;26342;42.826;23.992;2024-03-23T05:42:53;95381.47;;;1.03;100.00
40650;BME280;26342;42.826;23.992;2024-03-23T05:45:19;95376.84;;;1.11;100.00
40650;BME280;26342;42.826;23.992;2024-03-23T05:47:44;95380.50;;;1.24;100.00
40650;BME280;26342;42.826;23.992;2024-03-23T05:50:10;95382.94;;;1.38;100.00
40650;BME280;26342;42.826;23.992;2024-03-23T05:52:38;95384.19;;;1.56;100.00
40650;BME280;26342;42.826;23.992;2024-03-23T05:55:04;95382.63;;;1.75;100.00
40650;BME280;26342;42.826;23.992;2024-03-23T05:57:30;95376.16;;;1.90;100.00
40650;BME280;26342;42.826;23.992;2024-03-23T05:59:55;95372.88;;;2.08;100.00
40650;BME280;26342;42.826;23.992;2024-03-23T06:02:21;95369.41;;;2.21;100.00
40650;BME280;26342;42.826;23.992;2024-03-23T06:04:46;95360.69;;;2.40;100.00
40650;BME280;26342;42.826;23.992;2024-03-23T06:07:11;95375.41;;;2.68;100.00
40650;BME280;26342;42.826;23.992;2024-03-23T06:09:39;95352.44;;;2.88;100.00
40650;BME280;26342;42.826;23.992;2024-03-23T06:12:05;95359.16;;;3.22;100.00
40650;BME280;26342;42.826;23.992;2024-03-23T06:14:31;95353.19;;;3.40;100.00
40650;BME280;26342;42.826;23.992;2024-03-23T06:16:56;95356.38;;;3.49;100.00
40650;BME280;26342;42.826;23.992;2024-03-23T06:19:22;95347.31;;;3.70;100.00
40650;BME280;26342;42.826;23.992;2024-03-23T06:21:47;95358.03;;;4.00;100.00
40650;BME280;26342;42.826;23.992;2024-03-23T06:24:13;95352.75;;;4.25;100.00
40650;BME280;26342;42.826;23.992;2024-03-23T06:26:38;95355.94;;;4.52;100.00
40650;BME280;26342;42.826;23.992;2024-03-23T06:29:04;95351.47;;;4.70;100.00
40650;BME280;26342;42.826;23.992;2024-03-23T06:31:30;95346.38;;;4.87;100.00
40650;BME280;26342;42.826;23.992;2024-03-23T06:33:56;95333.66;;;5.14;100.00
40650;BME280;26342;42.826;23.992;2024-03-23T06:36:21;95343.03;;;5.28;100.00
40650;BME280;26342;42.826;23.992;2024-03-23T06:38:47;95343.72;;;5.54;100.00
40650;BME280;26342;42.826;23.992;2024-03-23T06:41:12;95349.72;;;5.73;100.00
40650;BME280;26342;42.826;23.992;2024-03-23T06:43:37;95343.72;;;5.96;100.00
40650;BME280;26342;42.826;23.992;2024-03-23T06:46:03;95336.00;;;6.29;100.00
40650;BME280;26342;42.826;23.992;2024-03-23T06:48:32;95310.69;;;6.33;100.00
40650;BME280;26342;42.826;23.992;2024-03-23T06:50:57;95331.59;;;6.70;100.00
40650;BME280;26342;42.826;23.992;2024-03-23T06:53:23;95327.09;;;7.11;100.00
40650;BME280;26342;42.826;23.992;2024-03-23T06:55:53;95322.38;;;7.41;100.00
40650;BME280;26342;42.826;23.992;2024-03-23T06:58:20;95316.88;;;7.60;100.00
40650;BME280;26342;42.826;23.992;2024-03-23T07:00:45;95321.09;;;7.89;100.00
40650;BME280;26342;42.826;23.992;2024-03-23T07:03:10;95296.22;;;8.12;100.00
40650;BME280;26342;42.826;23.992;2024-03-23T07:05:36;95310.78;;;8.43;100.00
40650;BME280;26342;42.826;23.992;2024-03-23T07:08:01;95301.63;;;8.73;100.00
40650;BME280;26342;42.826;23.992;2024-03-23T07:10:27;95300.06;;;8.99;96.29
40650;BME280;26342;42.826;23.992;2024-03-23T07:12:52;95297.91;;;9.17;95.81
40650;BME280;26342;42.826;23.992;2024-03-23T07:15:18;95300.94;;;9.53;100.00
40650;BME280;26342;42.826;23.992;2024-03-23T07:17:47;95290.84;;;9.87;100.00
40650;BME280;26342;42.826;23.992;2024-03-23T07:20:12;95282.81;;;10.14;100.00
40650;BME280;26342;42.826;23.992;2024-03-23T07:22:38;95291.38;;;10.58;95.50
40650;BME280;26342;42.826;23.992;2024-03-23T07:25:05;95280.34;;;10.97;81.29
40650;BME280;26342;42.826;23.992;2024-03-23T07:27:31;95277.00;;;11.32;80.35
40650;BME280;26342;42.826;23.992;2024-03-23T07:29:57;95265.84;;;11.56;74.22
40650;BME280;26342;42.826;23.992;2024-03-23T07:32:23;95269.66;;;11.85;69.38
40650;BME280;26342;42.826;23.992;2024-03-23T07:34:48;95268.84;;;12.10;69.90
40650;BME280;26342;42.826;23.992;2024-03-23T07:37:14;95263.47;;;12.30;67.85
40650;BME280;26342;42.826;23.992;2024-03-23T07:39:40;95261.81;;;12.60;66.49
40650;BME280;26342;42.826;23.992;2024-03-23T07:42:06;95257.16;;;12.86;62.12
40650;BME280;26342;42.826;23.992;2024-03-23T07:44:31;95256.03;;;13.02;56.89
40650;BME280;26342;42.826;23.992;2024-03-23T07:46:56;95256.97;;;13.37;53.64
40650;BME280;26342;42.826;23.992;2024-03-23T07:49:22;95252.03;;;13.54;57.95
40650;BME280;26342;42.826;23.992;2024-03-23T07:52:06;95249.75;;;13.77;59.13
40650;BME280;26342;42.826;23.992;2024-03-23T07:54:33;95250.16;;;13.94;56.07
40650;BME280;26342;42.826;23.992;2024-03-23T07:56:58;95247.06;;;14.11;61.30
40650;BME280;26342;42.826;23.992;2024-03-23T07:59:24;95248.78;;;14.31;59.05
40650;BME280;26342;42.826;23.992;2024-03-23T08:01:50;95242.66;;;14.54;53.85
40650;BME280;26342;42.826;23.992;2024-03-23T08:04:16;95235.97;;;14.75;50.80
40650;BME280;26342;42.826;23.992;2024-03-23T08:06:41;95236.03;;;14.94;49.10
40650;BME280;26342;42.826;23.992;2024-03-23T08:09:06;95240.00;;;15.21;52.89
40650;BME280;26342;42.826;23.992;2024-03-23T08:11:32;95234.13;;;15.38;47.57
40650;BME280;26342;42.826;23.992;2024-03-23T08:14:01;95236.22;;;15.65;45.81
40650;BME280;26342;42.826;23.992;2024-03-23T08:16:27;95230.50;;;15.85;43.22
40650;BME280;26342;42.826;23.992;2024-03-23T08:18:52;95233.97;;;16.04;50.19
40650;BME280;26342;42.826;23.992;2024-03-23T08:21:18;95231.75;;;16.39;41.32
40650;BME280;26342;42.826;23.992;2024-03-23T08:23:44;95228.97;;;16.58;43.45
40650;BME280;26342;42.826;23.992;2024-03-23T08:26:11;95230.72;;;16.81;41.20
40650;BME280;26342;42.826;23.992;2024-03-23T08:28:38;95227.16;;;16.99;43.73
40650;BME280;26342;42.826;23.992;2024-03-23T08:31:06;95232.50;;;17.27;41.37
40650;BME280;26342;42.826;23.992;2024-03-23T08:33:31;95222.75;;;17.53;41.86
40650;BME280;26342;42.826;23.992;2024-03-23T08:36:02;95225.22;;;17.77;41.26
40650;BME280;26342;42.826;23.992;2024-03-23T08:38:28;95220.06;;;17.90;37.05
40650;BME280;26342;42.826;23.992;2024-03-23T08:40:58;95227.81;;;18.05;40.78
40650;BME280;26342;42.826;23.992;2024-03-23T08:43:25;95210.03;;;18.35;35.72
40650;BME280;26342;42.826;23.992;2024-03-23T08:45:50;95216.41;;;18.39;35.57
40650;BME280;26342;42.826;23.992;2024-03-23T08:48:17;95213.56;;;18.66;34.95
40650;BME280;26342;42.826;23.992;2024-03-23T08:50:43;95211.84;;;18.48;33.84
40650;BME280;26342;42.826;23.992;2024-03-23T08:53:08;95206.50;;;18.57;38.23
40650;BME280;26342;42.826;23.992;2024-03-23T08:55:33;95198.38;;;18.88;35.76
40650;BME280;26342;42.826;23.992;2024-03-23T08:57:59;95197.78;;;19.00;38.88
40650;BME280;26342;42.826;23.992;2024-03-23T09:00:25;95199.06;;;19.11;33.19
40650;BME280;26342;42.826;23.992;2024-03-23T09:02:51;95194.19;;;19.21;33.33
40650;BME280;26342;42.826;23.992;2024-03-23T09:05:16;95196.56;;;19.32;34.57
40650;BME280;26342;42.826;23.992;2024-03-23T09:07:41;95187.22;;;19.55;33.94
40650;BME280;26342;42.826;23.992;2024-03-23T09:10:07;95181.19;;;19.84;34.41
40650;BME280;26342;42.826;23.992;2024-03-23T09:12:33;95179.59;;;19.92;33.02
40650;BME280;26342;42.826;23.992;2024-03-23T09:14:58;95177.75;;;20.22;34.43
40650;BME280;26342;42.826;23.992;2024-03-23T09:17:24;95164.53;;;20.46;32.51
40650;BME280;26342;42.826;23.992;2024-03-23T09:19:49;95161.84;;;20.76;35.20
40650;BME280;26342;42.826;23.992;2024-03-23T09:22:14;95171.88;;;20.75;31.74
40650;BME280;26342;42.826;23.992;2024-03-23T09:24:40;95157.91;;;20.65;31.91
40650;BME280;26342;42.826;23.992;2024-03-23T09:27:06;95158.00;;;20.77;37.79
40650;BME280;26342;42.826;23.992;2024-03-23T09:29:31;95149.69;;;20.82;35.07
40650;BME280;26342;42.826;23.992;2024-03-23T09:31:56;95155.66;;;21.26;34.46
40650;BME280;26342;42.826;23.992;2024-03-23T09:34:22;95147.09;;;21.44;30.72
40650;BME280;26342;42.826;23.992;2024-03-23T09:36:51;95148.94;;;21.53;33.90
40650;BME280;26342;42.826;23.992;2024-03-23T09:39:16;95131.38;;;21.71;31.25
40650;BME280;26342;42.826;23.992;2024-03-23T09:41:42;95146.41;;;21.89;30.50
40650;BME280;26342;42.826;23.992;2024-03-23T09:44:08;95142.41;;;21.87;29.94
40650;BME280;26342;42.826;23.992;2024-03-23T09:46:33;95136.88;;;21.62;29.58
40650;BME280;26342;42.826;23.992;2024-03-23T09:49:02;95137.22;;;21.82;30.23
40650;BME280;26342;42.826;23.992;2024-03-23T09:51:30;95130.81;;;21.98;29.01
40650;BME280;26342;42.826;23.992;2024-03-23T09:53:56;95130.25;;;21.72;28.03
40650;BME280;26342;42.826;23.992;2024-03-23T09:56:22;95126.63;;;21.68;28.88
40650;BME280;26342;42.826;23.992;2024-03-23T09:58:48;95126.63;;;21.68;29.84
40650;BME280;26342;42.826;23.992;2024-03-23T10:01:14;95120.22;;;21.72;28.27
40650;BME280;26342;42.826;23.992;2024-03-23T10:03:44;95105.38;;;20.78;29.83
40650;BME280;26342;42.826;23.992;2024-03-23T10:06:09;95106.72;;;21.43;32.93
40650;BME280;26342;42.826;23.992;2024-03-23T10:08:35;95104.25;;;22.04;31.05
40650;BME280;26342;42.826;23.992;2024-03-23T10:11:13;95100.47;;;22.42;29.93
40650;BME280;26342;42.826;23.992;2024-03-23T10:13:42;95092.31;;;22.54;30.23
40650;BME280;26342;42.826;23.992;2024-03-23T10:16:08;95097.88;;;22.45;28.24
40650;BME280;26342;42.826;23.992;2024-03-23T10:18:38;95093.75;;;22.15;27.03
40650;BME280;26342;42.826;23.992;2024-03-23T10:21:07;95087.09;;;21.91;28.08
40650;BME280;26342;42.826;23.992;2024-03-23T10:23:43;95078.06;;;21.99;27.37
40650;BME280;26342;42.826;23.992;2024-03-23T10:26:17;95077.53;;;22.06;28.39
40650;BME280;26342;42.826;23.992;2024-03-23T10:28:54;95064.44;;;22.57;30.68
40650;BME280;26342;42.826;23.992;2024-03-23T10:31:20;95066.03;;;22.46;26.95
40650;BME280;26342;42.826;23.992;2024-03-23T10:33:49;95058.84;;;22.05;28.03
40650;BME280;26342;42.826;23.992;2024-03-23T10:36:15;95064.91;;;21.89;27.62
40650;BME280;26342;42.826;23.992;2024-03-23T10:38:42;95063.56;;;21.95;28.70
40650;BME280;26342;42.826;23.992;2024-03-23T10:41:11;95058.22;;;22.20;29.31
40650;BME280;26342;42.826;23.992;2024-03-23T10:43:37;95052.44;;;22.34;27.81
40650;BME280;26342;42.826;23.992;2024-03-23T10:46:03;95046.09;;;22.42;28.00
40650;BME280;26342;42.826;23.992;2024-03-23T10:48:29;95045.53;;;22.61;29.13
40650;BME280;26342;42.826;23.992;2024-03-23T10:50:55;95030.31;;;22.84;28.12
40650;BME280;26342;42.826;23.992;2024-03-23T10:53:26;95031.34;;;22.79;30.36
40650;BME280;26342;42.826;23.992;2024-03-23T10:55:52;95026.91;;;22.75;27.83
40650;BME280;26342;42.826;23.992;2024-03-23T10:58:26;95027.50;;;22.68;28.09
40650;BME280;26342;42.826;23.992;2024-03-23T11:00:53;95015.94;;;22.83;28.60
40650;BME280;26342;42.826;23.992;2024-03-23T11:03:36;95010.91;;;23.10;27.14
40650;BME280;26342;42.826;23.992;2024-03-23T11:06:02;95004.19;;;22.67;27.84
40650;BME280;26342;42.826;23.992;2024-03-23T11:13:38;95006.97;;;22.83;33.55
40650;BME280;26342;42.826;23.992;2024-03-23T11:16:28;94991.56;;;22.99;27.43
40650;BME280;26342;42.826;23.992;2024-03-23T11:19:33;94984.28;;;23.03;28.42
40650;BME280;26342;42.826;23.992;2024-03-23T11:21:59;94973.88;;;23.21;28.23
40650;BME280;26342;42.826;23.992;2024-03-23T11:24:24;94989.53;;;22.72;30.82
40650;BME280;26342;42.826;23.992;2024-03-23T11:26:50;94979.47;;;23.12;29.72
40650;BME280;26342;42.826;23.992;2024-03-23T11:29:16;94970.72;;;23.19;25.88
40650;BME280;26342;42.826;23.992;2024-03-23T11:31:49;94968.78;;;23.20;25.85
40650;BME280;26342;42.826;23.992;2024-03-23T11:34:19;94957.00;;;23.44;29.11
40650;BME280;26342;42.826;23.992;2024-03-23T11:36:45;94951.53;;;23.72;27.54
40650;BME280;26342;42.826;23.992;2024-03-23T11:39:17;94952.84;;;23.93;27.97
40650;BME280;26342;42.826;23.992;2024-03-23T11:41:50;94954.63;;;23.70;25.11
40650;BME280;26342;42.826;23.992;2024-03-23T11:44:20;94944.84;;;23.25;26.14
40650;BME280;26342;42.826;23.992;2024-03-23T11:46:47;94947.28;;;23.15;25.87
40650;BME280;26342;42.826;23.992;2024-03-23T11:49:26;94933.75;;;22.90;26.09
40650;BME280;26342;42.826;23.992;2024-03-23T11:51:53;94932.94;;;22.90;25.77
40650;BME280;26342;42.826;23.992;2024-03-23T11:54:23;94933.66;;;22.74;26.64
40650;BME280;26342;42.826;23.992;2024-03-23T11:59:40;94922.78;;;22.74;27.51
40650;BME280;26342;42.826;23.992;2024-03-23T12:02:11;94925.41;;;22.71;26.79
40650;BME280;26342;42.826;23.992;2024-03-23T12:04:37;94909.19;;;22.10;27.12
40650;BME280;26342;42.826;23.992;2024-03-23T12:07:14;94926.19;;;21.37;26.66
40650;BME280;26342;42.826;23.992;2024-03-23T12:09:40;94920.75;;;21.37;27.90
40650;BME280;26342;42.826;23.992;2024-03-23T12:12:10;94916.41;;;21.24;26.97
40650;BME280;26342;42.826;23.992;2024-03-23T12:14:35;94898.66;;;21.26;26.44
40650;BME280;26342;42.826;23.992;2024-03-23T12:17:14;94904.94;;;21.39;28.22
40650;BME280;26342;42.826;23.992;2024-03-23T12:19:42;94899.16;;;21.40;27.09
40650;BME280;26342;42.826;23.992;2024-03-23T12:22:10;94891.59;;;21.46;27.29
40650;BME280;26342;42.826;23.992;2024-03-23T12:24:36;94885.53;;;21.73;28.30
40650;BME280;26342;42.826;23.992;2024-03-23T12:27:03;94879.31;;;22.10;26.82
40650;BME280;26342;42.826;23.992;2024-03-23T12:29:33;94871.94;;;21.98;28.75
40650;BME280;26342;42.826;23.992;2024-03-23T12:32:00;94884.28;;;22.20;26.95
40650;BME280;26342;42.826;23.992;2024-03-23T12:34:26;94885.88;;;22.09;28.16
40650;BME280;26342;42.826;23.992;2024-03-23T12:36:51;94871.28;;;22.53;27.34
40650;BME280;26342;42.826;23.992;2024-03-23T12:39:17;94869.72;;;22.52;26.31
40650;BME280;26342;42.826;23.992;2024-03-23T12:41:43;94860.00;;;22.39;26.49
40650;BME280;26342;42.826;23.992;2024-03-23T12:44:09;94848.03;;;22.28;26.60
40650;BME280;26342;42.826;23.992;2024-03-23T12:46:37;94861.06;;;22.22;26.18
40650;BME280;26342;42.826;23.992;2024-03-23T12:49:02;94857.78;;;22.17;29.39
40650;BME280;26342;42.826;23.992;2024-03-23T12:51:28;94864.13;;;22.21;26.11
40650;BME280;26342;42.826;23.992;2024-03-23T12:53:53;94865.72;;;22.22;27.29
40650;BME280;26342;42.826;23.992;2024-03-23T12:56:19;94848.84;;;22.16;25.81
40650;BME280;26342;42.826;23.992;2024-03-23T12:58:44;94856.09;;;22.00;25.78
40650;BME280;26342;42.826;23.992;2024-03-23T13:01:10;94843.53;;;21.83;25.02
40650;BME280;26342;42.826;23.992;2024-03-23T13:03:35;94848.63;;;22.09;26.85
40650;BME280;26342;42.826;23.992;2024-03-23T13:06:01;94836.72;;;22.01;25.04
40650;BME280;26342;42.826;23.992;2024-03-23T13:08:27;94829.41;;;21.90;25.77
40650;BME280;26342;42.826;23.992;2024-03-23T13:10:52;94828.97;;;21.51;24.13
40650;BME280;26342;42.826;23.992;2024-03-23T13:13:18;94824.34;;;21.06;23.79
40650;BME280;26342;42.826;23.992;2024-03-23T13:15:50;94835.19;;;20.94;25.76
40650;BME280;26342;42.826;23.992;2024-03-23T13:18:15;94827.59;;;20.87;25.25
40650;BME280;26342;42.826;23.992;2024-03-23T13:20:41;94824.47;;;20.65;25.56
40650;BME280;26342;42.826;23.992;2024-03-23T13:23:06;94822.22;;;20.67;25.21
40650;BME280;26342;42.826;23.992;2024-03-23T13:25:32;94816.84;;;20.79;25.29
40650;BME280;26342;42.826;23.992;2024-03-23T13:27:58;94811.91;;;20.60;25.79
40650;BME280;26342;42.826;23.992;2024-03-23T13:30:24;94811.34;;;20.67;24.92
40650;BME280;26342;42.826;23.992;2024-03-23T13:32:49;94812.94;;;20.68;25.76
40650;BME280;26342;42.826;23.992;2024-03-23T13:35:15;94812.66;;;20.48;24.36
40650;BME280;26342;42.826;23.992;2024-03-23T13:37:40;94814.09;;;20.46;26.28
40650;BME280;26342;42.826;23.992;2024-03-23T13:40:07;94810.66;;;20.36;25.78
40650;BME280;26342;42.826;23.992;2024-03-23T13:42:33;94807.94;;;20.36;26.17
40650;BME280;26342;42.826;23.992;2024-03-23T13:44:58;94807.25;;;20.06;25.90
40650;BME280;26342;42.826;23.992;2024-03-23T13:47:23;94802.88;;;19.93;26.87
40650;BME280;26342;42.826;23.992;2024-03-23T13:49:49;94809.94;;;19.86;26.01